sensor_id;sensor_type;location;lat;lon;timestamp;temperature;humidity
80228;DHT22;69539;42.138;24.742;2023-08-01T00:00:29;28.80;35.30
80228;DHT22;69539;42.138;24.742;2023-08-01T00:02:55;28.80;35.40
80228;DHT22;69539;42.138;24.742;2023-08-01T00:05:20;28.80;35.60
80228;DHT22;69539;42.138;24.742;2023-08-01T00:07:46;28.70;35.60
80228;DHT22;69539;42.138;24.742;2023-08-01T00:10:12;28.70;35.40
80228;DHT22;69539;42.138;24.742;2023-08-01T00:12:37;28.70;35.20
80228;DHT22;69539;42.138;24.742;2023-08-01T00:15:03;28.70;34.90
80228;DHT22;69539;42.138;24.742;2023-08-01T00:17:29;28.70;34.60
80228;DHT22;69539;42.138;24.742;2023-08-01T00:19:55;28.70;34.50
80228;DHT22;69539;42.138;24.742;2023-08-01T00:22:21;28.70;34.30
80228;DHT22;69539;42.138;24.742;2023-08-01T00:24:47;28.70;34.10
80228;DHT22;69539;42.138;24.742;2023-08-01T00:27:13;28.70;33.80
80228;DHT22;69539;42.138;24.742;2023-08-01T00:29:39;28.70;34.80
80228;DHT22;69539;42.138;24.742;2023-08-01T00:32:05;28.60;33.40
80228;DHT22;69539;42.138;24.742;2023-08-01T00:34:31;28.70;33.20
80228;DHT22;69539;42.138;24.742;2023-08-01T00:36:57;28.60;32.90
80228;DHT22;69539;42.138;24.742;2023-08-01T00:39:23;28.60;32.90
80228;DHT22;69539;42.138;24.742;2023-08-01T00:41:48;28.60;32.60
80228;DHT22;69539;42.138;24.742;2023-08-01T00:44:14;28.60;32.50
80228;DHT22;69539;42.138;24.742;2023-08-01T00:46:39;28.60;32.30
80228;DHT22;69539;42.138;24.742;2023-08-01T00:49:05;28.60;32.10
80228;DHT22;69539;42.138;24.742;2023-08-01T00:51:33;28.60;32.00
80228;DHT22;69539;42.138;24.742;2023-08-01T00:54:00;28.50;31.90
80228;DHT22;69539;42.138;24.742;2023-08-01T00:56:26;28.50;32.10
80228;DHT22;69539;42.138;24.742;2023-08-01T00:58:51;28.50;32.20
80228;DHT22;69539;42.138;24.742;2023-08-01T01:01:17;28.40;32.40
80228;DHT22;69539;42.138;24.742;2023-08-01T01:03:43;28.40;32.60
80228;DHT22;69539;42.138;24.742;2023-08-01T01:08:44;28.40;32.70
80228;DHT22;69539;42.138;24.742;2023-08-01T01:11:11;28.40;32.60
80228;DHT22;69539;42.138;24.742;2023-08-01T01:13:36;28.40;32.30
80228;DHT22;69539;42.138;24.742;2023-08-01T01:16:02;28.40;32.10
80228;DHT22;69539;42.138;24.742;2023-08-01T01:18:28;28.40;32.00
80228;DHT22;69539;42.138;24.742;2023-08-01T01:20:54;28.30;31.90
80228;DHT22;69539;42.138;24.742;2023-08-01T01:23:20;28.40;32.10
80228;DHT22;69539;42.138;24.742;2023-08-01T01:25:48;28.30;32.10
80228;DHT22;69539;42.138;24.742;2023-08-01T01:28:15;28.30;32.20
80228;DHT22;69539;42.138;24.742;2023-08-01T01:30:42;28.30;32.20
80228;DHT22;69539;42.138;24.742;2023-08-01T01:33:09;28.30;32.00
80228;DHT22;69539;42.138;24.742;2023-08-01T01:35:35;28.30;31.90
80228;DHT22;69539;42.138;24.742;2023-08-01T01:38:02;28.20;31.90
80228;DHT22;69539;42.138;24.742;2023-08-01T01:40:31;28.20;31.80
80228;DHT22;69539;42.138;24.742;2023-08-01T01:42:58;28.30;31.90
80228;DHT22;69539;42.138;24.742;2023-08-01T01:45:23;28.20;31.70
80228;DHT22;69539;42.138;24.742;2023-08-01T01:47:49;28.20;31.80
80228;DHT22;69539;42.138;24.742;2023-08-01T01:50:15;28.20;31.60
80228;DHT22;69539;42.138;24.742;2023-08-01T01:52:40;28.20;31.70
80228;DHT22;69539;42.138;24.742;2023-08-01T01:55:06;28.20;31.90
80228;DHT22;69539;42.138;24.742;2023-08-01T01:57:32;28.20;32.20
80228;DHT22;69539;42.138;24.742;2023-08-01T01:59:59;28.20;32.40
80228;DHT22;69539;42.138;24.742;2023-08-01T02:02:25;28.10;32.60
80228;DHT22;69539;42.138;24.742;2023-08-01T02:04:50;28.20;32.90
80228;DHT22;69539;42.138;24.742;2023-08-01T02:07:16;28.10;32.70
80228;DHT22;69539;42.138;24.742;2023-08-01T02:09:42;28.10;32.70
80228;DHT22;69539;42.138;24.742;2023-08-01T02:12:08;28.10;32.60
80228;DHT22;69539;42.138;24.742;2023-08-01T02:14:35;28.10;32.50
80228;DHT22;69539;42.138;24.742;2023-08-01T02:17:01;28.10;32.50
80228;DHT22;69539;42.138;24.742;2023-08-01T02:19:27;28.10;32.50
80228;DHT22;69539;42.138;24.742;2023-08-01T02:21:53;28.10;32.50
80228;DHT22;69539;42.138;24.742;2023-08-01T02:24:19;28.00;32.60
80228;DHT22;69539;42.138;24.742;2023-08-01T02:26:45;28.00;32.60
80228;DHT22;69539;42.138;24.742;2023-08-01T02:29:10;28.00;32.70
80228;DHT22;69539;42.138;24.742;2023-08-01T02:31:36;28.00;33.90
80228;DHT22;69539;42.138;24.742;2023-08-01T02:34:02;28.00;32.80
80228;DHT22;69539;42.138;24.742;2023-08-01T02:36:27;27.90;32.70
80228;DHT22;69539;42.138;24.742;2023-08-01T02:38:53;27.90;32.90
80228;DHT22;69539;42.138;24.742;2023-08-01T02:41:19;27.90;32.90
80228;DHT22;69539;42.138;24.742;2023-08-01T02:43:44;27.90;32.90
80228;DHT22;69539;42.138;24.742;2023-08-01T02:46:10;27.90;32.80
80228;DHT22;69539;42.138;24.742;2023-08-01T02:48:35;27.90;32.90
80228;DHT22;69539;42.138;24.742;2023-08-01T02:51:02;27.90;33.10
80228;DHT22;69539;42.138;24.742;2023-08-01T02:53:27;27.80;33.00
80228;DHT22;69539;42.138;24.742;2023-08-01T02:55:53;27.80;33.10
80228;DHT22;69539;42.138;24.742;2023-08-01T02:58:19;27.80;33.10
80228;DHT22;69539;42.138;24.742;2023-08-01T03:00:44;27.80;34.20
80228;DHT22;69539;42.138;24.742;2023-08-01T03:03:10;27.80;33.00
80228;DHT22;69539;42.138;24.742;2023-08-01T03:05:36;27.80;33.00
80228;DHT22;69539;42.138;24.742;2023-08-01T03:08:03;27.80;33.10
80228;DHT22;69539;42.138;24.742;2023-08-01T03:10:29;27.70;33.00
80228;DHT22;69539;42.138;24.742;2023-08-01T03:12:55;27.80;33.10
80228;DHT22;69539;42.138;24.742;2023-08-01T03:15:21;27.70;33.10
80228;DHT22;69539;42.138;24.742;2023-08-01T03:17:46;27.70;33.20
80228;DHT22;69539;42.138;24.742;2023-08-01T03:20:12;27.70;33.20
80228;DHT22;69539;42.138;24.742;2023-08-01T03:22:39;27.70;33.20
80228;DHT22;69539;42.138;24.742;2023-08-01T03:25:06;27.70;33.20
80228;DHT22;69539;42.138;24.742;2023-08-01T03:27:35;27.70;33.20
80228;DHT22;69539;42.138;24.742;2023-08-01T03:30:01;27.60;33.20
80228;DHT22;69539;42.138;24.742;2023-08-01T03:32:27;27.60;33.10
80228;DHT22;69539;42.138;24.742;2023-08-01T03:34:53;27.60;33.20
80228;DHT22;69539;42.138;24.742;2023-08-01T03:37:19;27.60;33.30
80228;DHT22;69539;42.138;24.742;2023-08-01T03:39:44;27.60;33.30
80228;DHT22;69539;42.138;24.742;2023-08-01T03:42:10;27.60;33.40
80228;DHT22;69539;42.138;24.742;2023-08-01T03:44:36;27.60;33.50
80228;DHT22;69539;42.138;24.742;2023-08-01T03:47:02;27.50;33.40
80228;DHT22;69539;42.138;24.742;2023-08-01T03:49:27;27.50;33.60
80228;DHT22;69539;42.138;24.742;2023-08-01T03:51:53;27.50;33.50
80228;DHT22;69539;42.138;24.742;2023-08-01T03:54:19;27.50;33.60
80228;DHT22;69539;42.138;24.742;2023-08-01T03:56:45;27.50;33.60
80228;DHT22;69539;42.138;24.742;2023-08-01T03:59:13;27.50;33.60
80228;DHT22;69539;42.138;24.742;2023-08-01T04:01:38;27.50;33.40
80228;DHT22;69539;42.138;24.742;2023-08-01T04:04:04;27.50;33.30
80228;DHT22;69539;42.138;24.742;2023-08-01T04:06:30;27.50;33.30
80228;DHT22;69539;42.138;24.742;2023-08-01T04:08:55;27.50;33.40
80228;DHT22;69539;42.138;24.742;2023-08-01T04:11:22;27.50;33.40
80228;DHT22;69539;42.138;24.742;2023-08-01T04:13:48;27.50;33.30
80228;DHT22;69539;42.138;24.742;2023-08-01T04:16:14;27.50;33.10
80228;DHT22;69539;42.138;24.742;2023-08-01T04:18:39;27.50;33.20
80228;DHT22;69539;42.138;24.742;2023-08-01T04:21:06;27.50;33.10
80228;DHT22;69539;42.138;24.742;2023-08-01T04:23:32;27.50;32.90
80228;DHT22;69539;42.138;24.742;2023-08-01T04:25:57;27.50;33.10
80228;DHT22;69539;42.138;24.742;2023-08-01T04:28:25;27.50;33.10
80228;DHT22;69539;42.138;24.742;2023-08-01T04:30:51;27.50;33.00
80228;DHT22;69539;42.138;24.742;2023-08-01T04:33:17;27.50;32.90
80228;DHT22;69539;42.138;24.742;2023-08-01T04:35:43;27.50;33.10
80228;DHT22;69539;42.138;24.742;2023-08-01T04:38:09;27.50;33.20
80228;DHT22;69539;42.138;24.742;2023-08-01T04:40:36;27.60;33.20
80228;DHT22;69539;42.138;24.742;2023-08-01T04:43:02;27.60;33.00
80228;DHT22;69539;42.138;24.742;2023-08-01T04:45:28;27.70;32.80
80228;DHT22;69539;42.138;24.742;2023-08-01T04:47:53;27.70;32.70
80228;DHT22;69539;42.138;24.742;2023-08-01T04:50:19;27.80;32.70
80228;DHT22;69539;42.138;24.742;2023-08-01T04:52:45;27.90;32.80
80228;DHT22;69539;42.138;24.742;2023-08-01T04:55:10;28.00;32.70
80228;DHT22;69539;42.138;24.742;2023-08-01T04:57:36;28.20;32.50
80228;DHT22;69539;42.138;24.742;2023-08-01T05:00:03;28.30;32.40
80228;DHT22;69539;42.138;24.742;2023-08-01T05:02:28;28.40;32.30
80228;DHT22;69539;42.138;24.742;2023-08-01T05:04:54;28.50;32.20
80228;DHT22;69539;42.138;24.742;2023-08-01T05:07:20;28.60;32.00
80228;DHT22;69539;42.138;24.742;2023-08-01T05:09:45;28.70;31.80
80228;DHT22;69539;42.138;24.742;2023-08-01T05:12:11;28.80;31.50
80228;DHT22;69539;42.138;24.742;2023-08-01T05:14:37;28.90;31.30
80228;DHT22;69539;42.138;24.742;2023-08-01T05:17:02;29.00;31.20
80228;DHT22;69539;42.138;24.742;2023-08-01T05:19:28;29.10;31.10
80228;DHT22;69539;42.138;24.742;2023-08-01T05:21:54;29.20;31.30
80228;DHT22;69539;42.138;24.742;2023-08-01T05:24:20;29.30;31.40
80228;DHT22;69539;42.138;24.742;2023-08-01T05:26:47;29.40;31.20
80228;DHT22;69539;42.138;24.742;2023-08-01T05:29:13;29.50;31.30
80228;DHT22;69539;42.138;24.742;2023-08-01T05:31:38;29.60;30.90
80228;DHT22;69539;42.138;24.742;2023-08-01T05:34:04;29.60;31.00
80228;DHT22;69539;42.138;24.742;2023-08-01T05:36:30;29.80;31.30
80228;DHT22;69539;42.138;24.742;2023-08-01T05:38:56;29.90;30.90
80228;DHT22;69539;42.138;24.742;2023-08-01T05:41:22;30.10;30.90
80228;DHT22;69539;42.138;24.742;2023-08-01T05:43:48;30.20;30.70
80228;DHT22;69539;42.138;24.742;2023-08-01T05:46:15;30.40;30.70
80228;DHT22;69539;42.138;24.742;2023-08-01T05:48:40;30.50;30.40
80228;DHT22;69539;42.138;24.742;2023-08-01T05:51:06;30.60;30.10
80228;DHT22;69539;42.138;24.742;2023-08-01T05:53:32;30.70;30.10
80228;DHT22;69539;42.138;24.742;2023-08-01T05:55:57;30.90;30.10
80228;DHT22;69539;42.138;24.742;2023-08-01T05:58:23;31.00;30.10
80228;DHT22;69539;42.138;24.742;2023-08-01T06:00:49;31.10;30.20
80228;DHT22;69539;42.138;24.742;2023-08-01T06:03:15;31.30;30.00
80228;DHT22;69539;42.138;24.742;2023-08-01T06:05:41;31.30;29.70
80228;DHT22;69539;42.138;24.742;2023-08-01T06:08:07;31.50;29.80
80228;DHT22;69539;42.138;24.742;2023-08-01T06:10:34;31.60;29.40
80228;DHT22;69539;42.138;24.742;2023-08-01T06:13:00;31.70;29.20
80228;DHT22;69539;42.138;24.742;2023-08-01T06:15:25;31.80;29.00
80228;DHT22;69539;42.138;24.742;2023-08-01T06:17:51;32.00;28.80
80228;DHT22;69539;42.138;24.742;2023-08-01T06:20:17;32.10;28.60
80228;DHT22;69539;42.138;24.742;2023-08-01T06:22:42;32.20;28.50
80228;DHT22;69539;42.138;24.742;2023-08-01T06:25:08;32.30;28.50
80228;DHT22;69539;42.138;24.742;2023-08-01T06:27:34;32.50;28.20
80228;DHT22;69539;42.138;24.742;2023-08-01T06:30:00;32.60;28.00
80228;DHT22;69539;42.138;24.742;2023-08-01T06:32:26;32.80;27.70
80228;DHT22;69539;42.138;24.742;2023-08-01T06:34:52;32.90;27.00
80228;DHT22;69539;42.138;24.742;2023-08-01T06:37:17;33.00;26.40
80228;DHT22;69539;42.138;24.742;2023-08-01T06:39:43;33.10;26.30
80228;DHT22;69539;42.138;24.742;2023-08-01T06:42:09;33.20;26.40
80228;DHT22;69539;42.138;24.742;2023-08-01T06:44:35;33.40;26.40
80228;DHT22;69539;42.138;24.742;2023-08-01T06:47:00;33.50;26.00
80228;DHT22;69539;42.138;24.742;2023-08-01T06:49:26;33.60;25.80
80228;DHT22;69539;42.138;24.742;2023-08-01T06:51:52;33.80;25.60
80228;DHT22;69539;42.138;24.742;2023-08-01T06:54:17;33.90;25.60
80228;DHT22;69539;42.138;24.742;2023-08-01T06:56:43;34.00;25.50
80228;DHT22;69539;42.138;24.742;2023-08-01T06:59:13;34.10;25.20
80228;DHT22;69539;42.138;24.742;2023-08-01T07:01:41;34.20;25.30
80228;DHT22;69539;42.138;24.742;2023-08-01T07:04:09;34.30;25.00
80228;DHT22;69539;42.138;24.742;2023-08-01T07:06:35;34.40;24.70
80228;DHT22;69539;42.138;24.742;2023-08-01T07:09:01;34.50;24.30
80228;DHT22;69539;42.138;24.742;2023-08-01T07:11:26;34.50;24.30
80228;DHT22;69539;42.138;24.742;2023-08-01T07:13:52;34.60;23.80
80228;DHT22;69539;42.138;24.742;2023-08-01T07:16:18;34.60;23.40
80228;DHT22;69539;42.138;24.742;2023-08-01T07:18:43;34.70;23.50
80228;DHT22;69539;42.138;24.742;2023-08-01T07:21:09;34.70;23.20
80228;DHT22;69539;42.138;24.742;2023-08-01T07:23:35;34.80;23.00
80228;DHT22;69539;42.138;24.742;2023-08-01T07:26:03;34.90;23.00
80228;DHT22;69539;42.138;24.742;2023-08-01T07:28:29;35.00;23.20
80228;DHT22;69539;42.138;24.742;2023-08-01T07:31:02;35.00;23.10
80228;DHT22;69539;42.138;24.742;2023-08-01T07:33:29;35.20;23.30
80228;DHT22;69539;42.138;24.742;2023-08-01T07:35:55;35.20;22.20
80228;DHT22;69539;42.138;24.742;2023-08-01T07:38:21;35.30;22.30
80228;DHT22;69539;42.138;24.742;2023-08-01T07:40:46;35.40;22.50
80228;DHT22;69539;42.138;24.742;2023-08-01T07:43:12;35.50;22.60
80228;DHT22;69539;42.138;24.742;2023-08-01T07:45:41;35.60;22.70
80228;DHT22;69539;42.138;24.742;2023-08-01T07:48:06;35.70;22.40
80228;DHT22;69539;42.138;24.742;2023-08-01T07:50:32;35.80;22.40
80228;DHT22;69539;42.138;24.742;2023-08-01T07:52:58;35.80;21.90
80228;DHT22;69539;42.138;24.742;2023-08-01T07:55:23;35.90;22.00
80228;DHT22;69539;42.138;24.742;2023-08-01T07:57:49;36.00;21.20
80228;DHT22;69539;42.138;24.742;2023-08-01T08:00:15;36.00;20.80
80228;DHT22;69539;42.138;24.742;2023-08-01T08:02:42;36.10;21.70
80228;DHT22;69539;42.138;24.742;2023-08-01T08:05:08;36.20;21.10
80228;DHT22;69539;42.138;24.742;2023-08-01T08:07:34;36.30;21.30
80228;DHT22;69539;42.138;24.742;2023-08-01T08:09:59;36.40;20.80
80228;DHT22;69539;42.138;24.742;2023-08-01T08:12:25;36.50;20.70
80228;DHT22;69539;42.138;24.742;2023-08-01T08:14:51;36.60;20.70
80228;DHT22;69539;42.138;24.742;2023-08-01T08:17:16;36.60;20.70
80228;DHT22;69539;42.138;24.742;2023-08-01T08:19:42;36.70;20.80
80228;DHT22;69539;42.138;24.742;2023-08-01T08:22:08;36.80;20.80
80228;DHT22;69539;42.138;24.742;2023-08-01T08:24:33;37.00;20.60
80228;DHT22;69539;42.138;24.742;2023-08-01T08:26:59;37.00;20.00
80228;DHT22;69539;42.138;24.742;2023-08-01T08:29:25;37.00;19.70
80228;DHT22;69539;42.138;24.742;2023-08-01T08:31:50;37.10;19.70
80228;DHT22;69539;42.138;24.742;2023-08-01T08:34:16;37.10;19.50
80228;DHT22;69539;42.138;24.742;2023-08-01T08:36:42;37.10;19.50
80228;DHT22;69539;42.138;24.742;2023-08-01T08:39:07;37.20;19.60
80228;DHT22;69539;42.138;24.742;2023-08-01T08:41:46;37.30;19.70
80228;DHT22;69539;42.138;24.742;2023-08-01T08:44:15;37.30;19.70
80228;DHT22;69539;42.138;24.742;2023-08-01T08:46:43;37.50;19.70
80228;DHT22;69539;42.138;24.742;2023-08-01T08:49:09;37.50;19.70
80228;DHT22;69539;42.138;24.742;2023-08-01T08:51:36;37.60;19.70
80228;DHT22;69539;42.138;24.742;2023-08-01T08:54:03;37.70;19.60
80228;DHT22;69539;42.138;24.742;2023-08-01T08:56:30;37.80;19.30
80228;DHT22;69539;42.138;24.742;2023-08-01T08:58:56;37.90;19.20
80228;DHT22;69539;42.138;24.742;2023-08-01T09:01:22;37.90;19.00
80228;DHT22;69539;42.138;24.742;2023-08-01T09:03:48;38.00;18.90
80228;DHT22;69539;42.138;24.742;2023-08-01T09:06:18;38.00;18.70
80228;DHT22;69539;42.138;24.742;2023-08-01T09:09:01;38.10;18.80
80228;DHT22;69539;42.138;24.742;2023-08-01T09:11:27;38.10;18.50
80228;DHT22;69539;42.138;24.742;2023-08-01T09:13:53;38.10;19.10
80228;DHT22;69539;42.138;24.742;2023-08-01T09:16:19;38.10;18.40
80228;DHT22;69539;42.138;24.742;2023-08-01T09:18:51;38.10;17.60
80228;DHT22;69539;42.138;24.742;2023-08-01T09:21:21;38.10;17.50
80228;DHT22;69539;42.138;24.742;2023-08-01T09:23:47;38.10;17.50
80228;DHT22;69539;42.138;24.742;2023-08-01T09:26:16;38.10;18.20
80228;DHT22;69539;42.138;24.742;2023-08-01T09:28:42;38.10;17.40
80228;DHT22;69539;42.138;24.742;2023-08-01T09:31:10;38.10;17.40
80228;DHT22;69539;42.138;24.742;2023-08-01T09:33:41;38.10;17.40
80228;DHT22;69539;42.138;24.742;2023-08-01T09:36:07;38.20;17.30
80228;DHT22;69539;42.138;24.742;2023-08-01T09:38:37;38.20;17.50
80228;DHT22;69539;42.138;24.742;2023-08-01T09:41:04;38.30;17.40
80228;DHT22;69539;42.138;24.742;2023-08-01T09:43:36;38.30;17.30
80228;DHT22;69539;42.138;24.742;2023-08-01T09:46:03;38.30;17.00
80228;DHT22;69539;42.138;24.742;2023-08-01T09:48:31;38.30;16.70
80228;DHT22;69539;42.138;24.742;2023-08-01T09:51:11;38.20;16.60
80228;DHT22;69539;42.138;24.742;2023-08-01T09:53:54;38.20;16.90
80228;DHT22;69539;42.138;24.742;2023-08-01T09:56:22;38.10;16.60
80228;DHT22;69539;42.138;24.742;2023-08-01T09:58:48;38.20;16.70
80228;DHT22;69539;42.138;24.742;2023-08-01T10:01:15;38.10;16.50
80228;DHT22;69539;42.138;24.742;2023-08-01T10:03:46;38.10;16.70
80228;DHT22;69539;42.138;24.742;2023-08-01T10:06:28;38.10;16.70
80228;DHT22;69539;42.138;24.742;2023-08-01T10:08:54;38.00;16.80
80228;DHT22;69539;42.138;24.742;2023-08-01T10:11:21;37.90;17.10
80228;DHT22;69539;42.138;24.742;2023-08-01T10:13:47;37.80;17.10
80228;DHT22;69539;42.138;24.742;2023-08-01T10:16:14;37.70;17.20
80228;DHT22;69539;42.138;24.742;2023-08-01T10:18:40;37.70;17.50
80228;DHT22;69539;42.138;24.742;2023-08-01T10:21:10;37.60;17.50
80228;DHT22;69539;42.138;24.742;2023-08-01T10:23:36;37.50;17.50
80228;DHT22;69539;42.138;24.742;2023-08-01T10:26:05;37.50;17.80
80228;DHT22;69539;42.138;24.742;2023-08-01T10:28:38;37.50;17.80
80228;DHT22;69539;42.138;24.742;2023-08-01T10:33:38;37.30;18.00
80228;DHT22;69539;42.138;24.742;2023-08-01T10:41:25;37.20;17.90
80228;DHT22;69539;42.138;24.742;2023-08-01T10:43:50;37.10;18.30
80228;DHT22;69539;42.138;24.742;2023-08-01T10:46:16;37.10;18.40
80228;DHT22;69539;42.138;24.742;2023-08-01T10:48:50;37.00;18.40
80228;DHT22;69539;42.138;24.742;2023-08-01T10:51:15;37.10;18.20
80228;DHT22;69539;42.138;24.742;2023-08-01T10:53:41;37.00;18.30
80228;DHT22;69539;42.138;24.742;2023-08-01T10:56:07;37.00;18.20
80228;DHT22;69539;42.138;24.742;2023-08-01T10:58:34;36.90;18.40
80228;DHT22;69539;42.138;24.742;2023-08-01T11:01:00;36.90;18.40
80228;DHT22;69539;42.138;24.742;2023-08-01T11:03:39;36.80;18.30
80228;DHT22;69539;42.138;24.742;2023-08-01T11:06:05;36.80;18.30
80228;DHT22;69539;42.138;24.742;2023-08-01T11:08:37;36.70;18.20
80228;DHT22;69539;42.138;24.742;2023-08-01T11:11:05;36.60;18.20
80228;DHT22;69539;42.138;24.742;2023-08-01T11:13:32;36.60;18.20
80228;DHT22;69539;42.138;24.742;2023-08-01T11:16:01;36.50;18.10
80228;DHT22;69539;42.138;24.742;2023-08-01T11:18:28;36.50;18.20
80228;DHT22;69539;42.138;24.742;2023-08-01T11:20:53;36.40;18.30
80228;DHT22;69539;42.138;24.742;2023-08-01T11:23:27;36.40;18.50
80228;DHT22;69539;42.138;24.742;2023-08-01T11:25:53;36.30;18.60
80228;DHT22;69539;42.138;24.742;2023-08-01T11:28:20;36.30;18.80
80228;DHT22;69539;42.138;24.742;2023-08-01T11:30:48;36.30;19.00
80228;DHT22;69539;42.138;24.742;2023-08-01T11:33:19;36.30;19.10
80228;DHT22;69539;42.138;24.742;2023-08-01T11:35:55;36.20;19.20
80228;DHT22;69539;42.138;24.742;2023-08-01T11:38:29;36.30;19.00
80228;DHT22;69539;42.138;24.742;2023-08-01T11:40:59;36.20;18.90
80228;DHT22;69539;42.138;24.742;2023-08-01T11:43:25;36.20;19.00
80228;DHT22;69539;42.138;24.742;2023-08-01T11:45:56;36.20;19.20
80228;DHT22;69539;42.138;24.742;2023-08-01T11:48:23;36.20;19.20
80228;DHT22;69539;42.138;24.742;2023-08-01T11:50:49;36.20;19.30
80228;DHT22;69539;42.138;24.742;2023-08-01T11:53:22;36.10;19.30
80228;DHT22;69539;42.138;24.742;2023-08-01T11:55:49;36.10;19.20
80228;DHT22;69539;42.138;24.742;2023-08-01T11:58:31;36.10;19.20
80228;DHT22;69539;42.138;24.742;2023-08-01T12:03:29;36.00;19.00
80228;DHT22;69539;42.138;24.742;2023-08-01T12:06:07;36.00;19.00
80228;DHT22;69539;42.138;24.742;2023-08-01T12:08:34;36.00;19.10
80228;DHT22;69539;42.138;24.742;2023-08-01T12:11:00;36.00;19.10
80228;DHT22;69539;42.138;24.742;2023-08-01T12:13:26;35.90;19.00
80228;DHT22;69539;42.138;24.742;2023-08-01T12:15:54;35.90;19.20
80228;DHT22;69539;42.138;24.742;2023-08-01T12:20:48;35.90;19.30
80228;DHT22;69539;42.138;24.742;2023-08-01T12:23:13;35.80;19.10
80228;DHT22;69539;42.138;24.742;2023-08-01T12:25:39;35.80;19.10
80228;DHT22;69539;42.138;24.742;2023-08-01T12:28:05;35.80;19.10
80228;DHT22;69539;42.138;24.742;2023-08-01T12:30:30;35.70;19.10
80228;DHT22;69539;42.138;24.742;2023-08-01T12:32:56;35.70;19.10
80228;DHT22;69539;42.138;24.742;2023-08-01T12:35:22;35.60;19.20
80228;DHT22;69539;42.138;24.742;2023-08-01T12:37:47;35.70;19.40
80228;DHT22;69539;42.138;24.742;2023-08-01T12:40:13;35.60;19.50
80228;DHT22;69539;42.138;24.742;2023-08-01T12:42:39;35.60;19.50
80228;DHT22;69539;42.138;24.742;2023-08-01T12:45:05;35.60;19.50
80228;DHT22;69539;42.138;24.742;2023-08-01T12:47:30;35.60;19.50
80228;DHT22;69539;42.138;24.742;2023-08-01T12:49:56;35.60;19.50
80228;DHT22;69539;42.138;24.742;2023-08-01T12:52:23;35.60;19.40
80228;DHT22;69539;42.138;24.742;2023-08-01T12:54:50;35.60;19.30
80228;DHT22;69539;42.138;24.742;2023-08-01T12:57:15;35.60;19.40
80228;DHT22;69539;42.138;24.742;2023-08-01T12:59:41;35.50;19.30
80228;DHT22;69539;42.138;24.742;2023-08-01T13:02:07;35.50;19.30
80228;DHT22;69539;42.138;24.742;2023-08-01T13:04:34;35.50;19.30
80228;DHT22;69539;42.138;24.742;2023-08-01T13:06:59;35.50;19.40
80228;DHT22;69539;42.138;24.742;2023-08-01T13:09:25;35.50;19.30
80228;DHT22;69539;42.138;24.742;2023-08-01T13:11:51;35.40;19.20
80228;DHT22;69539;42.138;24.742;2023-08-01T13:14:17;35.40;19.20
80228;DHT22;69539;42.138;24.742;2023-08-01T13:16:42;35.40;19.20
80228;DHT22;69539;42.138;24.742;2023-08-01T13:19:08;35.40;19.20
80228;DHT22;69539;42.138;24.742;2023-08-01T13:21:34;35.40;19.30
80228;DHT22;69539;42.138;24.742;2023-08-01T13:24:00;35.30;19.30
80228;DHT22;69539;42.138;24.742;2023-08-01T13:26:31;35.30;19.30
80228;DHT22;69539;42.138;24.742;2023-08-01T13:28:57;35.30;20.10
80228;DHT22;69539;42.138;24.742;2023-08-01T13:31:24;35.30;19.30
80228;DHT22;69539;42.138;24.742;2023-08-01T13:33:50;35.30;19.30
80228;DHT22;69539;42.138;24.742;2023-08-01T13:36:17;35.30;19.30
80228;DHT22;69539;42.138;24.742;2023-08-01T13:38:43;35.30;19.30
80228;DHT22;69539;42.138;24.742;2023-08-01T13:41:09;35.30;19.30
80228;DHT22;69539;42.138;24.742;2023-08-01T13:43:35;35.20;19.20
80228;DHT22;69539;42.138;24.742;2023-08-01T13:46:00;35.20;19.20
80228;DHT22;69539;42.138;24.742;2023-08-01T13:48:26;35.20;19.20
80228;DHT22;69539;42.138;24.742;2023-08-01T13:50:52;35.20;19.20
80228;DHT22;69539;42.138;24.742;2023-08-01T13:53:18;35.20;19.40
80228;DHT22;69539;42.138;24.742;2023-08-01T13:55:44;35.20;19.60
80228;DHT22;69539;42.138;24.742;2023-08-01T13:58:09;35.10;19.50
80228;DHT22;69539;42.138;24.742;2023-08-01T14:00:35;35.10;19.40
80228;DHT22;69539;42.138;24.742;2023-08-01T14:03:01;35.10;19.30
80228;DHT22;69539;42.138;24.742;2023-08-01T14:05:27;35.10;19.30
80228;DHT22;69539;42.138;24.742;2023-08-01T14:07:53;35.10;19.30
80228;DHT22;69539;42.138;24.742;2023-08-01T14:10:19;35.10;19.40
80228;DHT22;69539;42.138;24.742;2023-08-01T14:12:45;35.10;19.40
80228;DHT22;69539;42.138;24.742;2023-08-01T14:15:10;35.10;19.50
80228;DHT22;69539;42.138;24.742;2023-08-01T14:17:37;35.10;19.50
80228;DHT22;69539;42.138;24.742;2023-08-01T14:20:04;35.10;19.60
80228;DHT22;69539;42.138;24.742;2023-08-01T14:22:30;35.00;19.50
80228;DHT22;69539;42.138;24.742;2023-08-01T14:24:55;35.00;19.40
80228;DHT22;69539;42.138;24.742;2023-08-01T14:27:22;35.00;19.40
80228;DHT22;69539;42.138;24.742;2023-08-01T14:29:48;35.00;19.40
80228;DHT22;69539;42.138;24.742;2023-08-01T14:32:15;34.90;19.40
80228;DHT22;69539;42.138;24.742;2023-08-01T14:34:41;34.90;19.50
80228;DHT22;69539;42.138;24.742;2023-08-01T14:37:07;34.90;19.50
80228;DHT22;69539;42.138;24.742;2023-08-01T14:39:32;34.90;19.50
80228;DHT22;69539;42.138;24.742;2023-08-01T14:41:58;34.90;19.50
80228;DHT22;69539;42.138;24.742;2023-08-01T14:44:24;34.90;19.60
80228;DHT22;69539;42.138;24.742;2023-08-01T14:46:49;34.80;19.60
80228;DHT22;69539;42.138;24.742;2023-08-01T14:49:15;34.80;19.50
80228;DHT22;69539;42.138;24.742;2023-08-01T14:51:41;34.80;19.60
80228;DHT22;69539;42.138;24.742;2023-08-01T14:54:08;34.80;19.60
80228;DHT22;69539;42.138;24.742;2023-08-01T14:56:35;34.80;19.70
80228;DHT22;69539;42.138;24.742;2023-08-01T14:59:01;34.80;19.80
80228;DHT22;69539;42.138;24.742;2023-08-01T15:01:26;34.70;19.80
80228;DHT22;69539;42.138;24.742;2023-08-01T15:03:53;34.70;19.90
80228;DHT22;69539;42.138;24.742;2023-08-01T15:06:19;34.70;19.90
80228;DHT22;69539;42.138;24.742;2023-08-01T15:08:44;34.70;20.00
80228;DHT22;69539;42.138;24.742;2023-08-01T15:11:10;34.70;20.00
80228;DHT22;69539;42.138;24.742;2023-08-01T15:13:36;34.60;20.00
80228;DHT22;69539;42.138;24.742;2023-08-01T15:16:02;34.60;20.00
80228;DHT22;69539;42.138;24.742;2023-08-01T15:18:28;34.60;20.00
80228;DHT22;69539;42.138;24.742;2023-08-01T15:20:54;34.60;20.00
80228;DHT22;69539;42.138;24.742;2023-08-01T15:23:20;34.60;20.10
80228;DHT22;69539;42.138;24.742;2023-08-01T15:26:12;34.60;20.10